sensor_id;sensor_type;location;lat;lon;timestamp;pressure;altitude;pressure_sealevel;temperature;humidity
15260;BME280;34462;51.368;12.364;2023-03-23T00:02:04;20098.38;;;-141.84;57.17
15260;BME280;34462;51.368;12.364;2023-03-23T00:04:31;20122.78;;;-141.84;56.61
15260;BME280;34462;51.368;12.364;2023-03-23T00:06:58;20090.25;;;-141.84;56.24
15260;BME280;34462;51.368;12.364;2023-03-23T00:09:27;20100.41;;;-141.84;56.62
15260;BME280;34462;51.368;12.364;2023-03-23T00:11:55;20065.84;;;-141.84;56.95
15260;BME280;34462;51.368;12.364;2023-03-23T00:14:32;20098.38;;;-141.84;57.10
15260;BME280;34462;51.368;12.364;2023-03-23T00:17:08;20082.13;;;-141.84;56.79
15260;BME280;34462;51.368;12.364;2023-03-23T00:19:37;20114.63;;;-141.84;57.20
15260;BME280;34462;51.368;12.364;2023-03-23T00:22:13;20059.75;;;-141.84;57.20
15260;BME280;34462;51.368;12.364;2023-03-23T00:24:41;20059.75;;;-141.84;57.38
15260;BME280;34462;51.368;12.364;2023-03-23T00:27:10;20082.13;;;-141.84;57.62
15260;BME280;34462;51.368;12.364;2023-03-23T00:29:41;20031.31;;;-141.84;57.50
15260;BME280;34462;51.368;12.364;2023-03-23T00:32:12;20069.94;;;-141.84;57.29
15260;BME280;34462;51.368;12.364;2023-03-23T00:34:41;20017.09;;;-141.84;58.00
15260;BME280;34462;51.368;12.364;2023-03-23T00:37:09;20045.53;;;-141.84;58.11
15260;BME280;34462;51.368;12.364;2023-03-23T00:39:38;20008.94;;;-141.84;58.30
15260;BME280;34462;51.368;12.364;2023-03-23T00:42:14;20019.13;;;-141.84;58.80
15260;BME280;34462;51.368;12.364;2023-03-23T00:44:42;20004.88;;;-141.84;58.59
15260;BME280;34462;51.368;12.364;2023-03-23T00:47:11;20037.41;;;-141.84;59.03
15260;BME280;34462;51.368;12.364;2023-03-23T00:49:38;19998.78;;;-141.84;59.52
15260;BME280;34462;51.368;12.364;2023-03-23T00:52:07;20061.78;;;-141.84;57.87
15260;BME280;34462;51.368;12.364;2023-03-23T00:54:34;20114.63;;;-141.84;56.80
15260;BME280;34462;51.368;12.364;2023-03-23T00:57:04;20053.66;;;-141.84;57.11
15260;BME280;34462;51.368;12.364;2023-03-23T00:59:33;20098.38;;;-141.84;56.82
15260;BME280;34462;51.368;12.364;2023-03-23T01:02:00;20065.84;;;-141.84;56.83
15260;BME280;34462;51.368;12.364;2023-03-23T01:04:27;20031.31;;;-141.84;57.58
15260;BME280;34462;51.368;12.364;2023-03-23T01:06:57;20061.78;;;-141.84;57.42
15260;BME280;34462;51.368;12.364;2023-03-23T01:09:26;20041.47;;;-141.84;57.45
15260;BME280;34462;51.368;12.364;2023-03-23T01:11:54;20033.34;;;-141.84;57.56
15260;BME280;34462;51.368;12.364;2023-03-23T01:14:22;20049.59;;;-141.84;57.59
15260;BME280;34462;51.368;12.364;2023-03-23T01:16:51;20045.53;;;-141.84;57.22
15260;BME280;34462;51.368;12.364;2023-03-23T01:19:18;20045.53;;;-141.84;57.23
15260;BME280;34462;51.368;12.364;2023-03-23T01:21:45;20049.59;;;-141.84;56.34
15260;BME280;34462;51.368;12.364;2023-03-23T01:24:12;20088.22;;;-141.84;55.89
15260;BME280;34462;51.368;12.364;2023-03-23T01:26:40;20061.78;;;-141.84;56.17
15260;BME280;34462;51.368;12.364;2023-03-23T01:29:07;20047.56;;;-141.84;56.56
15260;BME280;34462;51.368;12.364;2023-03-23T01:31:34;20029.28;;;-141.84;56.27
15260;BME280;34462;51.368;12.364;2023-03-23T01:34:04;20008.94;;;-141.84;57.64
15260;BME280;34462;51.368;12.364;2023-03-23T01:36:31;20031.31;;;-141.84;56.86
15260;BME280;34462;51.368;12.364;2023-03-23T01:39:00;20039.44;;;-141.84;56.92
15260;BME280;34462;51.368;12.364;2023-03-23T01:41:30;20010.97;;;-141.84;56.91
15260;BME280;34462;51.368;12.364;2023-03-23T01:44:01;20004.88;;;-141.84;57.79
15260;BME280;34462;51.368;12.364;2023-03-23T01:46:31;19972.38;;;-141.84;58.33
15260;BME280;34462;51.368;12.364;2023-03-23T01:49:06;19972.38;;;-141.84;57.87
15260;BME280;34462;51.368;12.364;2023-03-23T01:51:37;19972.38;;;-141.84;58.17
15260;BME280;34462;51.368;12.364;2023-03-23T01:54:12;20006.91;;;-141.84;57.30
15260;BME280;34462;51.368;12.364;2023-03-23T01:56:50;20031.31;;;-141.84;56.03
15260;BME280;34462;51.368;12.364;2023-03-23T01:59:20;20006.91;;;-141.84;56.51
15260;BME280;34462;51.368;12.364;2023-03-23T02:01:50;19986.59;;;-141.84;56.89
15260;BME280;34462;51.368;12.364;2023-03-23T02:04:20;20010.97;;;-141.84;56.90
15260;BME280;34462;51.368;12.364;2023-03-23T02:06:51;20074.00;;;-141.84;55.80
15260;BME280;34462;51.368;12.364;2023-03-23T02:09:18;20029.28;;;-141.84;56.89
15260;BME280;34462;51.368;12.364;2023-03-23T02:11:48;20045.53;;;-141.84;56.23
15260;BME280;34462;51.368;12.364;2023-03-23T02:14:17;20112.59;;;-141.84;55.63
15260;BME280;34462;51.368;12.364;2023-03-23T02:16:51;20074.00;;;-141.84;55.38
15260;BME280;34462;51.368;12.364;2023-03-23T02:20:01;20086.19;;;-141.84;54.95
15260;BME280;34462;51.368;12.364;2023-03-23T02:23:14;20047.56;;;-141.84;55.64
15260;BME280;34462;51.368;12.364;2023-03-23T02:26:09;20043.50;;;-141.84;55.81
15260;BME280;34462;51.368;12.364;2023-03-23T02:29:07;20043.50;;;-141.84;56.42
15260;BME280;34462;51.368;12.364;2023-03-23T02:32:11;20027.25;;;-141.84;56.44
15260;BME280;34462;51.368;12.364;2023-03-23T02:34:44;20051.63;;;-141.84;56.46
15260;BME280;34462;51.368;12.364;2023-03-23T02:37:24;20076.03;;;-141.84;55.36
15260;BME280;34462;51.368;12.364;2023-03-23T02:40:01;20102.44;;;-141.84;55.16
15260;BME280;34462;51.368;12.364;2023-03-23T02:42:36;20076.03;;;-141.84;55.32
15260;BME280;34462;51.368;12.364;2023-03-23T02:45:07;20049.59;;;-141.84;55.01
15260;BME280;34462;51.368;12.364;2023-03-23T02:47:38;20069.94;;;-141.84;54.95
15260;BME280;34462;51.368;12.364;2023-03-23T02:50:12;20128.88;;;-141.84;54.86
15260;BME280;34462;51.368;12.364;2023-03-23T02:52:43;20049.59;;;-141.84;55.30
15260;BME280;34462;51.368;12.364;2023-03-23T02:55:12;20043.50;;;-141.84;55.88
15260;BME280;34462;51.368;12.364;2023-03-23T02:57:42;20037.41;;;-141.84;55.54
15260;BME280;34462;51.368;12.364;2023-03-23T03:00:15;20094.31;;;-141.84;54.69
15260;BME280;34462;51.368;12.364;2023-03-23T03:02:47;20051.63;;;-141.84;54.78
15260;BME280;34462;51.368;12.364;2023-03-23T03:05:34;20067.88;;;-141.84;54.91
15260;BME280;34462;51.368;12.364;2023-03-23T03:08:15;20090.25;;;-141.84;55.09
15260;BME280;34462;51.368;12.364;2023-03-23T03:10:53;20086.19;;;-141.84;54.71
15260;BME280;34462;51.368;12.364;2023-03-23T03:13:39;20090.25;;;-141.84;54.91
15260;BME280;34462;51.368;12.364;2023-03-23T03:16:22;20132.94;;;-141.84;54.72
15260;BME280;34462;51.368;12.364;2023-03-23T03:18:57;20082.13;;;-141.84;55.23
15260;BME280;34462;51.368;12.364;2023-03-23T03:21:33;20110.56;;;-141.84;54.80
15260;BME280;34462;51.368;12.364;2023-03-23T03:24:05;20069.94;;;-141.84;55.20
15260;BME280;34462;51.368;12.364;2023-03-23T03:26:39;20132.94;;;-141.84;54.94
15260;BME280;34462;51.368;12.364;2023-03-23T03:29:16;20110.56;;;-141.84;54.36
15260;BME280;34462;51.368;12.364;2023-03-23T03:31:45;20130.91;;;-141.84;54.27
15260;BME280;34462;51.368;12.364;2023-03-23T03:34:15;20143.09;;;-141.84;53.92
15260;BME280;34462;51.368;12.364;2023-03-23T03:36:47;20169.53;;;-141.84;53.89
15260;BME280;34462;51.368;12.364;2023-03-23T03:39:16;20098.38;;;-141.84;54.42
15260;BME280;34462;51.368;12.364;2023-03-23T03:41:46;20143.09;;;-141.84;54.34
15260;BME280;34462;51.368;12.364;2023-03-23T03:44:14;20114.63;;;-141.84;54.40
15260;BME280;34462;51.368;12.364;2023-03-23T03:46:42;20139.03;;;-141.84;54.41
15260;BME280;34462;51.368;12.364;2023-03-23T03:49:11;20159.34;;;-141.84;53.87
15260;BME280;34462;51.368;12.364;2023-03-23T03:51:39;20147.16;;;-141.84;54.27
15260;BME280;34462;51.368;12.364;2023-03-23T03:54:08;20130.91;;;-141.84;54.68
15260;BME280;34462;51.368;12.364;2023-03-23T03:56:36;20183.75;;;-141.84;54.18
15260;BME280;34462;51.368;12.364;2023-03-23T03:59:06;20171.56;;;-141.84;53.94
15260;BME280;34462;51.368;12.364;2023-03-23T04:01:34;20108.53;;;-141.84;54.58
15260;BME280;34462;51.368;12.364;2023-03-23T04:04:02;20208.13;;;-141.84;54.00
15260;BME280;34462;51.368;12.364;2023-03-23T04:06:31;20149.19;;;-141.84;54.60
15260;BME280;34462;51.368;12.364;2023-03-23T04:08:59;20167.47;;;-141.84;54.93
15260;BME280;34462;51.368;12.364;2023-03-23T04:11:28;20130.91;;;-141.84;55.12
15260;BME280;34462;51.368;12.364;2023-03-23T04:13:55;20139.03;;;-141.84;54.99
15260;BME280;34462;51.368;12.364;2023-03-23T04:16:22;20108.53;;;-141.84;55.34
15260;BME280;34462;51.368;12.364;2023-03-23T04:18:50;20147.16;;;-141.84;54.64
15260;BME280;34462;51.368;12.364;2023-03-23T04:21:17;20141.06;;;-141.84;54.48
15260;BME280;34462;51.368;12.364;2023-03-23T04:23:44;20167.47;;;-141.84;54.86
15260;BME280;34462;51.368;12.364;2023-03-23T04:26:11;20096.34;;;-141.84;55.41
15260;BME280;34462;51.368;12.364;2023-03-23T04:28:40;20163.41;;;-141.84;54.69
15260;BME280;34462;51.368;12.364;2023-03-23T04:31:07;20185.78;;;-141.84;54.50
15260;BME280;34462;51.368;12.364;2023-03-23T04:33:38;20155.28;;;-141.84;54.84
15260;BME280;34462;51.368;12.364;2023-03-23T04:36:07;20149.19;;;-141.84;54.99
15260;BME280;34462;51.368;12.364;2023-03-23T04:38:34;20147.16;;;-141.84;54.74
15260;BME280;34462;51.368;12.364;2023-03-23T04:41:02;20112.59;;;-141.84;55.43
15260;BME280;34462;51.368;12.364;2023-03-23T04:43:29;20092.28;;;-141.84;55.42
15260;BME280;34462;51.368;12.364;2023-03-23T04:46:00;20126.84;;;-141.84;55.71
15260;BME280;34462;51.368;12.364;2023-03-23T04:48:30;20124.81;;;-141.84;55.85
15260;BME280;34462;51.368;12.364;2023-03-23T04:51:00;20134.97;;;-141.84;55.57
15260;BME280;34462;51.368;12.364;2023-03-23T04:53:28;20147.16;;;-141.84;54.71
15260;BME280;34462;51.368;12.364;2023-03-23T04:55:56;20159.34;;;-141.84;55.08
15260;BME280;34462;51.368;12.364;2023-03-23T04:58:23;20114.63;;;-141.84;55.90
15260;BME280;34462;51.368;12.364;2023-03-23T05:00:50;20106.50;;;-141.84;56.31
15260;BME280;34462;51.368;12.364;2023-03-23T05:03:20;20124.81;;;-141.84;56.01
15260;BME280;34462;51.368;12.364;2023-03-23T05:05:47;20057.72;;;-141.84;56.67
15260;BME280;34462;51.368;12.364;2023-03-23T05:08:19;20067.88;;;-141.84;57.55
15260;BME280;34462;51.368;12.364;2023-03-23T05:10:54;20102.44;;;-141.84;57.92
15260;BME280;34462;51.368;12.364;2023-03-23T05:13:22;20071.97;;;-141.84;58.33
15260;BME280;34462;51.368;12.364;2023-03-23T05:15:50;20094.31;;;-141.84;57.76
15260;BME280;34462;51.368;12.364;2023-03-23T05:18:20;20080.09;;;-141.84;58.02
15260;BME280;34462;51.368;12.364;2023-03-23T05:20:47;20076.03;;;-141.84;58.37
15260;BME280;34462;51.368;12.364;2023-03-23T05:23:19;20051.63;;;-141.84;58.34
15260;BME280;34462;51.368;12.364;2023-03-23T05:25:53;20051.63;;;-141.84;58.07
15260;BME280;34462;51.368;12.364;2023-03-23T05:28:21;20067.88;;;-141.84;58.54
15260;BME280;34462;51.368;12.364;2023-03-23T05:30:49;20031.31;;;-141.84;59.20
15260;BME280;34462;51.368;12.364;2023-03-23T05:33:16;20069.94;;;-141.84;59.57
15260;BME280;34462;51.368;12.364;2023-03-23T05:35:45;20047.56;;;-141.84;59.50
15260;BME280;34462;51.368;12.364;2023-03-23T05:38:14;20047.56;;;-141.84;60.27
15260;BME280;34462;51.368;12.364;2023-03-23T05:40:42;20023.19;;;-141.84;60.94
15260;BME280;34462;51.368;12.364;2023-03-23T05:43:09;20043.50;;;-141.84;61.29
15260;BME280;34462;51.368;12.364;2023-03-23T05:45:37;20015.03;;;-141.84;61.24
15260;BME280;34462;51.368;12.364;2023-03-23T05:48:05;20061.78;;;-141.84;60.51
15260;BME280;34462;51.368;12.364;2023-03-23T05:50:32;20045.53;;;-141.84;60.11
15260;BME280;34462;51.368;12.364;2023-03-23T05:53:01;20061.78;;;-141.84;60.35
15260;BME280;34462;51.368;12.364;2023-03-23T05:55:29;20057.72;;;-141.84;60.07
15260;BME280;34462;51.368;12.364;2023-03-23T05:57:58;20084.16;;;-141.84;59.99
15260;BME280;34462;51.368;12.364;2023-03-23T06:00:26;20094.31;;;-141.84;59.67
15260;BME280;34462;51.368;12.364;2023-03-23T06:02:56;20069.94;;;-141.84;60.05
15260;BME280;34462;51.368;12.364;2023-03-23T06:05:24;20088.22;;;-141.84;60.00
15260;BME280;34462;51.368;12.364;2023-03-23T06:07:51;20065.84;;;-141.84;60.51
15260;BME280;34462;51.368;12.364;2023-03-23T06:10:21;20013.00;;;-141.84;60.63
15260;BME280;34462;51.368;12.364;2023-03-23T06:12:50;20061.78;;;-141.84;61.82
15260;BME280;34462;51.368;12.364;2023-03-23T06:15:18;20031.31;;;-141.84;62.12
15260;BME280;34462;51.368;12.364;2023-03-23T06:17:45;20006.91;;;-141.84;63.20
15260;BME280;34462;51.368;12.364;2023-03-23T06:20:12;20029.28;;;-141.84;63.59
15260;BME280;34462;51.368;12.364;2023-03-23T06:22:40;19984.56;;;-141.84;64.37
15260;BME280;34462;51.368;12.364;2023-03-23T06:25:09;19988.63;;;-141.84;64.97
15260;BME280;34462;51.368;12.364;2023-03-23T06:27:39;19996.75;;;-141.84;65.80
15260;BME280;34462;51.368;12.364;2023-03-23T06:30:09;19990.66;;;-141.84;67.35
15260;BME280;34462;51.368;12.364;2023-03-23T06:32:38;19947.97;;;-141.84;68.57
15260;BME280;34462;51.368;12.364;2023-03-23T06:35:06;19960.16;;;-141.84;69.12
15260;BME280;34462;51.368;12.364;2023-03-23T06:37:35;19943.91;;;-141.84;69.34
15260;BME280;34462;51.368;12.364;2023-03-23T06:40:02;19931.72;;;-141.84;70.06
15260;BME280;34462;51.368;12.364;2023-03-23T06:42:32;19933.75;;;-141.84;70.51
15260;BME280;34462;51.368;12.364;2023-03-23T06:45:01;19960.16;;;-141.84;70.85
15260;BME280;34462;51.368;12.364;2023-03-23T06:47:29;19954.06;;;-141.84;71.76
15260;BME280;34462;51.368;12.364;2023-03-23T06:49:56;19927.66;;;-141.84;71.91
15260;BME280;34462;51.368;12.364;2023-03-23T06:52:24;19937.81;;;-141.84;71.85
15260;BME280;34462;51.368;12.364;2023-03-23T06:54:52;19923.59;;;-141.84;71.71
15260;BME280;34462;51.368;12.364;2023-03-23T06:57:19;19939.84;;;-141.84;71.38
15260;BME280;34462;51.368;12.364;2023-03-23T06:59:47;19943.91;;;-141.84;71.38
15260;BME280;34462;51.368;12.364;2023-03-23T07:02:16;20025.22;;;-141.84;67.16
15260;BME280;34462;51.368;12.364;2023-03-23T07:04:43;19992.69;;;-141.84;68.13
15260;BME280;34462;51.368;12.364;2023-03-23T07:07:11;19994.72;;;-141.84;68.96
15260;BME280;34462;51.368;12.364;2023-03-23T07:09:44;19974.41;;;-141.84;69.69
15260;BME280;34462;51.368;12.364;2023-03-23T07:12:11;19964.25;;;-141.84;67.10
15260;BME280;34462;51.368;12.364;2023-03-23T07:14:40;20008.94;;;-141.84;66.92
15260;BME280;34462;51.368;12.364;2023-03-23T07:17:07;20006.91;;;-141.84;66.19
15260;BME280;34462;51.368;12.364;2023-03-23T07:19:36;20000.81;;;-141.84;66.38
15260;BME280;34462;51.368;12.364;2023-03-23T07:22:05;20061.78;;;-141.84;64.79
15260;BME280;34462;51.368;12.364;2023-03-23T07:24:33;20029.28;;;-141.84;64.77
15260;BME280;34462;51.368;12.364;2023-03-23T07:27:00;20057.72;;;-141.84;65.16
15260;BME280;34462;51.368;12.364;2023-03-23T07:29:28;20057.72;;;-141.84;65.72
15260;BME280;34462;51.368;12.364;2023-03-23T07:31:56;20078.06;;;-141.84;65.42
15260;BME280;34462;51.368;12.364;2023-03-23T07:34:23;20065.84;;;-141.84;65.44
15260;BME280;34462;51.368;12.364;2023-03-23T07:36:51;20067.88;;;-141.84;64.81
15260;BME280;34462;51.368;12.364;2023-03-23T07:39:18;20027.25;;;-141.84;66.01
15260;BME280;34462;51.368;12.364;2023-03-23T07:41:45;20053.66;;;-141.84;65.88
15260;BME280;34462;51.368;12.364;2023-03-23T07:44:12;20076.03;;;-141.84;66.17
15260;BME280;34462;51.368;12.364;2023-03-23T07:46:40;20069.94;;;-141.84;65.89
15260;BME280;34462;51.368;12.364;2023-03-23T07:49:08;20061.78;;;-141.84;65.53
15260;BME280;34462;51.368;12.364;2023-03-23T07:51:36;20063.81;;;-141.84;65.76
15260;BME280;34462;51.368;12.364;2023-03-23T07:54:07;20078.06;;;-141.84;64.98
15260;BME280;34462;51.368;12.364;2023-03-23T07:56:35;20063.81;;;-141.84;64.55
15260;BME280;34462;51.368;12.364;2023-03-23T07:59:03;20100.41;;;-141.84;65.25
15260;BME280;34462;51.368;12.364;2023-03-23T08:01:31;20059.75;;;-141.84;64.79
15260;BME280;34462;51.368;12.364;2023-03-23T08:03:58;20100.41;;;-141.84;65.04
15260;BME280;34462;51.368;12.364;2023-03-23T08:06:26;20108.53;;;-141.84;64.38
15260;BME280;34462;51.368;12.364;2023-03-23T08:08:53;20096.34;;;-141.84;64.71
15260;BME280;34462;51.368;12.364;2023-03-23T08:11:22;20074.00;;;-141.84;65.75
15260;BME280;34462;51.368;12.364;2023-03-23T08:13:49;20145.13;;;-141.84;65.57
15260;BME280;34462;51.368;12.364;2023-03-23T08:16:17;20084.16;;;-141.84;65.78
15260;BME280;34462;51.368;12.364;2023-03-23T08:18:44;20141.06;;;-141.84;65.33
15260;BME280;34462;51.368;12.364;2023-03-23T08:21:12;20134.97;;;-141.84;64.53
15260;BME280;34462;51.368;12.364;2023-03-23T08:23:39;20134.97;;;-141.84;66.06
15260;BME280;34462;51.368;12.364;2023-03-23T08:26:07;20143.09;;;-141.84;66.82
15260;BME280;34462;51.368;12.364;2023-03-23T08:28:37;20092.28;;;-141.84;66.69
15260;BME280;34462;51.368;12.364;2023-03-23T08:31:07;20100.41;;;-141.84;66.55
15260;BME280;34462;51.368;12.364;2023-03-23T08:33:34;20108.53;;;-141.84;65.86
15260;BME280;34462;51.368;12.364;2023-03-23T08:36:03;20149.19;;;-141.84;65.79
15260;BME280;34462;51.368;12.364;2023-03-23T08:38:31;20130.91;;;-141.84;64.88
15260;BME280;34462;51.368;12.364;2023-03-23T08:40:59;20195.94;;;-141.84;64.41
15260;BME280;34462;51.368;12.364;2023-03-23T08:43:27;20244.72;;;-141.84;63.81
15260;BME280;34462;51.368;12.364;2023-03-23T08:45:55;20269.13;;;-141.84;62.92
15260;BME280;34462;51.368;12.364;2023-03-23T08:48:23;20289.44;;;-141.84;62.28
15260;BME280;34462;51.368;12.364;2023-03-23T08:50:51;20389.03;;;-141.84;60.75
15260;BME280;34462;51.368;12.364;2023-03-23T08:53:19;20415.47;;;-141.84;60.35
15260;BME280;34462;51.368;12.364;2023-03-23T08:55:48;20423.59;;;-141.84;59.08
15260;BME280;34462;51.368;12.364;2023-03-23T08:58:15;20494.75;;;-141.84;58.77
15260;BME280;34462;51.368;12.364;2023-03-23T09:00:43;20445.94;;;-141.84;58.23
15260;BME280;34462;51.368;12.364;2023-03-23T09:03:12;20488.63;;;-141.84;58.39
15260;BME280;34462;51.368;12.364;2023-03-23T09:05:41;20523.19;;;-141.84;57.79
15260;BME280;34462;51.368;12.364;2023-03-23T09:08:12;20508.97;;;-141.84;58.39
15260;BME280;34462;51.368;12.364;2023-03-23T09:10:39;20500.84;;;-141.84;58.18
15260;BME280;34462;51.368;12.364;2023-03-23T09:13:06;20415.47;;;-141.84;57.57
15260;BME280;34462;51.368;12.364;2023-03-23T09:15:34;20447.97;;;-141.84;57.59
15260;BME280;34462;51.368;12.364;2023-03-23T09:18:01;20523.19;;;-141.84;56.39
15260;BME280;34462;51.368;12.364;2023-03-23T09:20:30;20557.75;;;-141.84;55.50
15260;BME280;34462;51.368;12.364;2023-03-23T09:22:58;20574.00;;;-141.84;55.21
15260;BME280;34462;51.368;12.364;2023-03-23T09:25:27;20578.09;;;-141.84;55.07
15260;BME280;34462;51.368;12.364;2023-03-23T09:27:57;20584.19;;;-141.84;54.22
15260;BME280;34462;51.368;12.364;2023-03-23T09:30:29;20561.81;;;-141.84;54.90
15260;BME280;34462;51.368;12.364;2023-03-23T09:32:58;20598.41;;;-141.84;54.30
15260;BME280;34462;51.368;12.364;2023-03-23T09:35:27;20513.03;;;-141.84;54.41
15260;BME280;34462;51.368;12.364;2023-03-23T09:37:55;20557.75;;;-141.84;55.51
15260;BME280;34462;51.368;12.364;2023-03-23T09:40:32;20555.72;;;-141.84;55.28
15260;BME280;34462;51.368;12.364;2023-03-23T09:43:44;20569.94;;;-141.84;55.19
15260;BME280;34462;51.368;12.364;2023-03-23T09:46:35;20569.94;;;-141.84;54.20
15260;BME280;34462;51.368;12.364;2023-03-23T09:49:10;20608.56;;;-141.84;54.61
15260;BME280;34462;51.368;12.364;2023-03-23T09:51:44;20632.97;;;-141.84;54.23
15260;BME280;34462;51.368;12.364;2023-03-23T09:54:20;20630.94;;;-141.84;53.65
15260;BME280;34462;51.368;12.364;2023-03-23T09:56:50;20657.34;;;-141.84;53.02
15260;BME280;34462;51.368;12.364;2023-03-23T09:59:24;20710.22;;;-141.84;52.48
15260;BME280;34462;51.368;12.364;2023-03-23T10:01:59;20679.72;;;-141.84;52.61
15260;BME280;34462;51.368;12.364;2023-03-23T10:04:39;20618.72;;;-141.84;52.65
15260;BME280;34462;51.368;12.364;2023-03-23T10:07:12;20641.09;;;-141.84;52.40
15260;BME280;34462;51.368;12.364;2023-03-23T10:09:45;20675.66;;;-141.84;52.34
15260;BME280;34462;51.368;12.364;2023-03-23T10:12:31;20610.59;;;-141.84;53.01
15260;BME280;34462;51.368;12.364;2023-03-23T10:15:13;20653.28;;;-141.84;52.93
15260;BME280;34462;51.368;12.364;2023-03-23T10:17:49;20675.66;;;-141.84;50.76
15260;BME280;34462;51.368;12.364;2023-03-23T10:20:35;20637.03;;;-141.84;51.66
15260;BME280;34462;51.368;12.364;2023-03-23T10:23:32;20736.63;;;-141.84;50.76
15260;BME280;34462;51.368;12.364;2023-03-23T10:26:12;20720.38;;;-141.84;50.26
15260;BME280;34462;51.368;12.364;2023-03-23T10:28:43;20689.88;;;-141.84;50.45
15260;BME280;34462;51.368;12.364;2023-03-23T10:31:17;20712.25;;;-141.84;51.07
15260;BME280;34462;51.368;12.364;2023-03-23T10:33:48;20693.94;;;-141.84;49.30
15260;BME280;34462;51.368;12.364;2023-03-23T10:36:21;20724.44;;;-141.84;49.69
15260;BME280;34462;51.368;12.364;2023-03-23T10:38:59;20728.50;;;-141.84;50.35
15260;BME280;34462;51.368;12.364;2023-03-23T10:41:29;20708.19;;;-141.84;49.39
15260;BME280;34462;51.368;12.364;2023-03-23T10:43:56;20740.69;;;-141.84;49.21
15260;BME280;34462;51.368;12.364;2023-03-23T10:46:38;20683.78;;;-141.84;49.23
15260;BME280;34462;51.368;12.364;2023-03-23T10:49:21;20712.25;;;-141.84;49.70
15260;BME280;34462;51.368;12.364;2023-03-23T10:51:58;20659.38;;;-141.84;49.73
15260;BME280;34462;51.368;12.364;2023-03-23T10:54:35;20704.13;;;-141.84;48.73
15260;BME280;34462;51.368;12.364;2023-03-23T10:57:22;20702.09;;;-141.84;49.42
15260;BME280;34462;51.368;12.364;2023-03-23T10:59:50;20716.31;;;-141.84;50.27
15260;BME280;34462;51.368;12.364;2023-03-23T11:02:19;20691.91;;;-141.84;48.39
15260;BME280;34462;51.368;12.364;2023-03-23T11:04:56;20685.81;;;-141.84;48.56
15260;BME280;34462;51.368;12.364;2023-03-23T11:07:31;20681.75;;;-141.84;48.01
15260;BME280;34462;51.368;12.364;2023-03-23T11:10:15;20667.53;;;-141.84;47.82
15260;BME280;34462;51.368;12.364;2023-03-23T11:12:45;20622.81;;;-141.84;47.83
15260;BME280;34462;51.368;12.364;2023-03-23T11:15:29;20728.50;;;-141.84;48.05
15260;BME280;34462;51.368;12.364;2023-03-23T11:18:00;20708.19;;;-141.84;47.42
15260;BME280;34462;51.368;12.364;2023-03-23T11:20:34;20761.03;;;-141.84;47.55
15260;BME280;34462;51.368;12.364;2023-03-23T11:23:18;20708.19;;;-141.84;46.84
15260;BME280;34462;51.368;12.364;2023-03-23T11:26:08;20691.91;;;-141.84;47.57
15260;BME280;34462;51.368;12.364;2023-03-23T11:28:44;20683.78;;;-141.84;48.64
15260;BME280;34462;51.368;12.364;2023-03-23T11:31:13;20708.19;;;-141.84;48.09
15260;BME280;34462;51.368;12.364;2023-03-23T11:33:56;20641.09;;;-141.84;48.34
15260;BME280;34462;51.368;12.364;2023-03-23T11:36:32;20675.66;;;-141.84;48.44
15260;BME280;34462;51.368;12.364;2023-03-23T11:39:00;20641.09;;;-141.84;49.17
15260;BME280;34462;51.368;12.364;2023-03-23T11:41:35;20608.56;;;-141.84;48.97
15260;BME280;34462;51.368;12.364;2023-03-23T11:44:11;20663.47;;;-141.84;48.62
15260;BME280;34462;51.368;12.364;2023-03-23T11:46:49;20671.59;;;-141.84;49.07
15260;BME280;34462;51.368;12.364;2023-03-23T11:49:32;20665.50;;;-141.84;48.94
15260;BME280;34462;51.368;12.364;2023-03-23T11:52:13;20714.28;;;-141.84;48.95
15260;BME280;34462;51.368;12.364;2023-03-23T11:54:52;20754.94;;;-141.84;48.31
15260;BME280;34462;51.368;12.364;2023-03-23T11:57:23;20761.03;;;-141.84;48.23
15260;BME280;34462;51.368;12.364;2023-03-23T11:59:51;20708.19;;;-141.84;49.11
15260;BME280;34462;51.368;12.364;2023-03-23T12:02:36;20673.63;;;-141.84;48.94
15260;BME280;34462;51.368;12.364;2023-03-23T12:05:32;20742.75;;;-141.84;49.62
15260;BME280;34462;51.368;12.364;2023-03-23T12:08:25;20683.78;;;-141.84;49.90
15260;BME280;34462;51.368;12.364;2023-03-23T12:11:06;20724.44;;;-141.84;49.86
15260;BME280;34462;51.368;12.364;2023-03-23T12:14:01;20767.13;;;-141.84;48.65
15260;BME280;34462;51.368;12.364;2023-03-23T12:16:43;20763.06;;;-141.84;48.63
15260;BME280;34462;51.368;12.364;2023-03-23T12:19:23;20767.13;;;-141.84;49.19
15260;BME280;34462;51.368;12.364;2023-03-23T12:22:02;20765.09;;;-141.84;48.54
15260;BME280;34462;51.368;12.364;2023-03-23T12:24:59;20726.47;;;-141.84;48.99
15260;BME280;34462;51.368;12.364;2023-03-23T12:27:42;20748.84;;;-141.84;49.36
15260;BME280;34462;51.368;12.364;2023-03-23T12:30:26;20767.13;;;-141.84;49.51
15260;BME280;34462;51.368;12.364;2023-03-23T12:33:13;20740.69;;;-141.84;49.04
15260;BME280;34462;51.368;12.364;2023-03-23T12:35:59;20805.75;;;-141.84;49.40
15260;BME280;34462;51.368;12.364;2023-03-23T12:38:54;20752.91;;;-141.84;48.78
15260;BME280;34462;51.368;12.364;2023-03-23T12:41:31;20858.59;;;-141.84;48.30
15260;BME280;34462;51.368;12.364;2023-03-23T12:44:03;20846.41;;;-141.84;48.05
15260;BME280;34462;51.368;12.364;2023-03-23T12:47:20;20885.03;;;-141.84;46.72
15260;BME280;34462;51.368;12.364;2023-03-23T12:49:56;20836.25;;;-141.84;47.23
15260;BME280;34462;51.368;12.364;2023-03-23T12:52:32;20880.97;;;-141.84;47.92
15260;BME280;34462;51.368;12.364;2023-03-23T12:55:07;20970.41;;;-141.84;46.64
15260;BME280;34462;51.368;12.364;2023-03-23T12:57:47;21023.28;;;-141.84;44.94